KEDE/EDE METAR and TAF weather

Enter ICAO airport designator
Station Type Date Time Source
KEDE METAR 2019/12/14 11:15 UTC NOAA

KEDE 141115Z AUTO 00000KT 1/2SM FG OVC004 13/13 A2957 RMK AO2 T01250125


Station Type Date Time Source
KEDE Decoded METAR 2019/12/14 11:15 UTC NOAA

Edenton, Northeastern Regional Airport, NC, United States (KEDE) 36-01-40N 076-34-02W
Dec 14, 2019 - 06:15 AM EST / 2019.12.14 1115 UTC
Wind: Calm:0
Visibility: 1/2 mile(s):0
Sky conditions: overcast
Weather: fog
Temperature: 54.5 F (12.5 C)
Dew Point: 54.5 F (12.5 C)
Relative Humidity: 100%
Pressure (altimeter): 29.57 in. Hg (1001 hPa)
ob: KEDE 141115Z AUTO 00000KT 1/2SM FG OVC004 13/13 A2957 RMK AO2 T01250125
cycle: 11

Station Type Date Time Source
KEDE TAF UTC NOAA

Error!

Example: see airport list